sensor_id;sensor_type;location;lat;lon;timestamp;P1;durP1;ratioP1;P2;durP2;ratioP2
35114;SDS011;21292;52.416;13.046;2022-10-16T00:01:39;6.60;;;2.58;;
35114;SDS011;21292;52.416;13.046;2022-10-16T00:04:07;3.92;;;1.98;;
35114;SDS011;21292;52.416;13.046;2022-10-16T00:06:36;3.72;;;2.20;;
35114;SDS011;21292;52.416;13.046;2022-10-16T00:09:04;2.25;;;1.80;;
35114;SDS011;21292;52.416;13.046;2022-10-16T00:11:34;2.38;;;2.17;;
35114;SDS011;21292;52.416;13.046;2022-10-16T00:14:04;4.72;;;2.08;;
35114;SDS011;21292;52.416;13.046;2022-10-16T00:16:34;2.38;;;2.00;;
35114;SDS011;21292;52.416;13.046;2022-10-16T00:19:05;3.75;;;2.47;;
35114;SDS011;21292;52.416;13.046;2022-10-16T00:21:33;2.38;;;2.13;;
35114;SDS011;21292;52.416;13.046;2022-10-16T00:24:02;2.95;;;2.05;;
35114;SDS011;21292;52.416;13.046;2022-10-16T00:26:33;2.22;;;1.70;;
35114;SDS011;21292;52.416;13.046;2022-10-16T00:29:02;3.88;;;1.83;;
35114;SDS011;21292;52.416;13.046;2022-10-16T00:31:31;2.95;;;2.17;;
35114;SDS011;21292;52.416;13.046;2022-10-16T00:33:59;2.90;;;1.75;;
35114;SDS011;21292;52.416;13.046;2022-10-16T00:36:29;1.73;;;1.63;;
35114;SDS011;21292;52.416;13.046;2022-10-16T00:38:57;3.30;;;2.10;;
35114;SDS011;21292;52.416;13.046;2022-10-16T00:41:27;2.72;;;1.45;;
35114;SDS011;21292;52.416;13.046;2022-10-16T00:43:56;3.53;;;2.22;;
35114;SDS011;21292;52.416;13.046;2022-10-16T00:46:26;1.60;;;1.50;;
35114;SDS011;21292;52.416;13.046;2022-10-16T00:48:56;7.07;;;2.08;;
35114;SDS011;21292;52.416;13.046;2022-10-16T00:51:30;4.95;;;2.50;;
35114;SDS011;21292;52.416;13.046;2022-10-16T00:54:01;2.88;;;1.92;;
35114;SDS011;21292;52.416;13.046;2022-10-16T00:56:31;2.67;;;1.95;;
35114;SDS011;21292;52.416;13.046;2022-10-16T00:59:00;2.20;;;2.00;;
35114;SDS011;21292;52.416;13.046;2022-10-16T01:01:29;3.05;;;1.70;;
35114;SDS011;21292;52.416;13.046;2022-10-16T01:03:57;2.10;;;1.60;;
35114;SDS011;21292;52.416;13.046;2022-10-16T01:06:30;2.13;;;1.92;;
35114;SDS011;21292;52.416;13.046;2022-10-16T01:09:08;2.67;;;1.65;;
35114;SDS011;21292;52.416;13.046;2022-10-16T01:11:41;2.78;;;1.92;;
35114;SDS011;21292;52.416;13.046;2022-10-16T01:14:14;2.72;;;1.95;;
35114;SDS011;21292;52.416;13.046;2022-10-16T01:16:53;2.20;;;2.00;;
35114;SDS011;21292;52.416;13.046;2022-10-16T01:19:26;3.03;;;2.00;;
35114;SDS011;21292;52.416;13.046;2022-10-16T01:22:04;3.03;;;1.98;;
35114;SDS011;21292;52.416;13.046;2022-10-16T01:24:39;3.80;;;2.42;;
35114;SDS011;21292;52.416;13.046;2022-10-16T01:27:10;4.57;;;1.98;;
35114;SDS011;21292;52.416;13.046;2022-10-16T01:29:41;2.00;;;1.90;;
35114;SDS011;21292;52.416;13.046;2022-10-16T01:32:16;2.67;;;2.05;;
35114;SDS011;21292;52.416;13.046;2022-10-16T01:34:48;2.70;;;1.90;;
35114;SDS011;21292;52.416;13.046;2022-10-16T01:37:21;5.90;;;2.47;;
35114;SDS011;21292;52.416;13.046;2022-10-16T01:39:54;3.10;;;2.40;;
35114;SDS011;21292;52.416;13.046;2022-10-16T01:42:28;3.78;;;2.10;;
35114;SDS011;21292;52.416;13.046;2022-10-16T01:44:58;2.38;;;2.00;;
35114;SDS011;21292;52.416;13.046;2022-10-16T01:47:27;2.65;;;2.38;;
35114;SDS011;21292;52.416;13.046;2022-10-16T01:49:58;2.47;;;2.28;;
35114;SDS011;21292;52.416;13.046;2022-10-16T01:52:26;2.95;;;2.38;;
35114;SDS011;21292;52.416;13.046;2022-10-16T01:54:56;3.83;;;2.17;;
35114;SDS011;21292;52.416;13.046;2022-10-16T01:57:27;2.92;;;2.03;;
35114;SDS011;21292;52.416;13.046;2022-10-16T01:59:58;3.90;;;2.25;;
35114;SDS011;21292;52.416;13.046;2022-10-16T02:02:29;2.20;;;2.00;;
35114;SDS011;21292;52.416;13.046;2022-10-16T02:05:02;2.17;;;1.80;;
35114;SDS011;21292;52.416;13.046;2022-10-16T02:07:33;2.95;;;1.98;;
35114;SDS011;21292;52.416;13.046;2022-10-16T02:10:02;2.65;;;2.00;;
35114;SDS011;21292;52.416;13.046;2022-10-16T02:12:33;6.03;;;2.50;;
35114;SDS011;21292;52.416;13.046;2022-10-16T02:15:06;2.40;;;2.20;;
35114;SDS011;21292;52.416;13.046;2022-10-16T02:17:34;1.90;;;1.80;;
35114;SDS011;21292;52.416;13.046;2022-10-16T02:20:04;2.20;;;2.00;;
35114;SDS011;21292;52.416;13.046;2022-10-16T02:22:34;3.47;;;1.88;;
35114;SDS011;21292;52.416;13.046;2022-10-16T02:25:05;2.47;;;2.08;;
35114;SDS011;21292;52.416;13.046;2022-10-16T02:27:38;5.28;;;2.35;;
35114;SDS011;21292;52.416;13.046;2022-10-16T02:30:11;2.28;;;2.08;;
35114;SDS011;21292;52.416;13.046;2022-10-16T02:32:43;2.25;;;2.05;;
35114;SDS011;21292;52.416;13.046;2022-10-16T02:35:12;3.17;;;2.20;;
35114;SDS011;21292;52.416;13.046;2022-10-16T02:37:41;2.70;;;2.17;;
35114;SDS011;21292;52.416;13.046;2022-10-16T02:40:10;3.92;;;2.47;;
35114;SDS011;21292;52.416;13.046;2022-10-16T02:42:40;4.13;;;2.35;;
35114;SDS011;21292;52.416;13.046;2022-10-16T02:45:09;4.32;;;2.28;;
35114;SDS011;21292;52.416;13.046;2022-10-16T02:47:38;3.22;;;2.28;;
35114;SDS011;21292;52.416;13.046;2022-10-16T02:50:07;2.17;;;1.98;;
35114;SDS011;21292;52.416;13.046;2022-10-16T02:52:35;2.90;;;2.10;;
35114;SDS011;21292;52.416;13.046;2022-10-16T02:55:03;5.30;;;2.83;;
35114;SDS011;21292;52.416;13.046;2022-10-16T02:57:33;2.33;;;2.10;;
35114;SDS011;21292;52.416;13.046;2022-10-16T03:00:05;2.80;;;2.20;;
35114;SDS011;21292;52.416;13.046;2022-10-16T03:02:34;3.83;;;2.60;;
35114;SDS011;21292;52.416;13.046;2022-10-16T03:05:03;2.88;;;2.33;;
35114;SDS011;21292;52.416;13.046;2022-10-16T03:07:33;2.88;;;2.47;;
35114;SDS011;21292;52.416;13.046;2022-10-16T03:10:02;3.38;;;2.58;;
35114;SDS011;21292;52.416;13.046;2022-10-16T03:12:31;4.22;;;2.30;;
35114;SDS011;21292;52.416;13.046;2022-10-16T03:14:59;4.20;;;2.53;;
35114;SDS011;21292;52.416;13.046;2022-10-16T03:17:29;4.30;;;2.30;;
35114;SDS011;21292;52.416;13.046;2022-10-16T03:19:57;3.08;;;2.50;;
35114;SDS011;21292;52.416;13.046;2022-10-16T03:22:26;3.90;;;2.70;;
35114;SDS011;21292;52.416;13.046;2022-10-16T03:24:54;3.78;;;2.72;;
35114;SDS011;21292;52.416;13.046;2022-10-16T03:27:22;3.72;;;2.45;;
35114;SDS011;21292;52.416;13.046;2022-10-16T03:29:51;4.35;;;2.75;;
35114;SDS011;21292;52.416;13.046;2022-10-16T03:32:20;4.20;;;2.70;;
35114;SDS011;21292;52.416;13.046;2022-10-16T03:34:49;3.47;;;3.03;;
35114;SDS011;21292;52.416;13.046;2022-10-16T03:37:19;3.13;;;2.75;;
35114;SDS011;21292;52.416;13.046;2022-10-16T03:39:48;3.60;;;2.63;;
35114;SDS011;21292;52.416;13.046;2022-10-16T03:42:16;4.20;;;2.92;;
35114;SDS011;21292;52.416;13.046;2022-10-16T03:44:44;3.55;;;3.15;;
35114;SDS011;21292;52.416;13.046;2022-10-16T03:47:12;3.03;;;2.70;;
35114;SDS011;21292;52.416;13.046;2022-10-16T03:49:40;2.92;;;2.63;;
35114;SDS011;21292;52.416;13.046;2022-10-16T03:52:10;3.67;;;3.38;;
35114;SDS011;21292;52.416;13.046;2022-10-16T03:54:39;3.47;;;3.10;;
35114;SDS011;21292;52.416;13.046;2022-10-16T03:57:07;3.30;;;2.95;;
35114;SDS011;21292;52.416;13.046;2022-10-16T03:59:35;4.13;;;2.70;;
35114;SDS011;21292;52.416;13.046;2022-10-16T04:02:03;3.85;;;2.72;;
35114;SDS011;21292;52.416;13.046;2022-10-16T04:04:31;2.75;;;2.55;;
35114;SDS011;21292;52.416;13.046;2022-10-16T04:07:00;4.63;;;2.63;;
35114;SDS011;21292;52.416;13.046;2022-10-16T04:09:30;4.05;;;3.13;;
35114;SDS011;21292;52.416;13.046;2022-10-16T04:11:58;3.08;;;2.78;;
35114;SDS011;21292;52.416;13.046;2022-10-16T04:14:27;3.17;;;2.88;;
35114;SDS011;21292;52.416;13.046;2022-10-16T04:16:56;4.38;;;2.88;;
35114;SDS011;21292;52.416;13.046;2022-10-16T04:19:25;3.92;;;2.70;;
35114;SDS011;21292;52.416;13.046;2022-10-16T04:21:53;4.30;;;2.80;;
35114;SDS011;21292;52.416;13.046;2022-10-16T04:24:21;6.05;;;3.10;;
35114;SDS011;21292;52.416;13.046;2022-10-16T04:26:51;4.93;;;2.75;;
35114;SDS011;21292;52.416;13.046;2022-10-16T04:29:20;3.53;;;2.80;;
35114;SDS011;21292;52.416;13.046;2022-10-16T04:31:49;4.20;;;2.60;;
35114;SDS011;21292;52.416;13.046;2022-10-16T04:34:17;4.93;;;2.80;;
35114;SDS011;21292;52.416;13.046;2022-10-16T04:36:46;3.65;;;2.55;;
35114;SDS011;21292;52.416;13.046;2022-10-16T04:39:15;4.50;;;2.78;;
35114;SDS011;21292;52.416;13.046;2022-10-16T04:41:44;4.43;;;2.83;;
35114;SDS011;21292;52.416;13.046;2022-10-16T04:44:14;4.47;;;2.60;;
35114;SDS011;21292;52.416;13.046;2022-10-16T04:46:42;3.92;;;2.78;;
35114;SDS011;21292;52.416;13.046;2022-10-16T04:49:11;3.08;;;2.75;;
35114;SDS011;21292;52.416;13.046;2022-10-16T04:51:40;3.33;;;3.03;;
35114;SDS011;21292;52.416;13.046;2022-10-16T04:54:08;5.07;;;3.30;;
35114;SDS011;21292;52.416;13.046;2022-10-16T04:56:37;3.42;;;2.90;;
35114;SDS011;21292;52.416;13.046;2022-10-16T04:59:14;4.75;;;3.08;;
35114;SDS011;21292;52.416;13.046;2022-10-16T05:01:43;4.03;;;2.88;;
35114;SDS011;21292;52.416;13.046;2022-10-16T05:04:11;3.55;;;2.83;;
35114;SDS011;21292;52.416;13.046;2022-10-16T05:06:42;4.68;;;2.97;;
35114;SDS011;21292;52.416;13.046;2022-10-16T05:09:10;4.05;;;2.60;;
35114;SDS011;21292;52.416;13.046;2022-10-16T05:11:39;4.00;;;2.50;;
35114;SDS011;21292;52.416;13.046;2022-10-16T05:14:08;4.05;;;2.83;;
35114;SDS011;21292;52.416;13.046;2022-10-16T05:16:38;5.00;;;2.65;;
35114;SDS011;21292;52.416;13.046;2022-10-16T05:19:06;4.47;;;2.65;;
35114;SDS011;21292;52.416;13.046;2022-10-16T05:21:54;3.75;;;2.70;;
35114;SDS011;21292;52.416;13.046;2022-10-16T05:24:23;4.65;;;2.65;;
35114;SDS011;21292;52.416;13.046;2022-10-16T05:26:51;2.50;;;2.28;;
35114;SDS011;21292;52.416;13.046;2022-10-16T05:29:20;2.72;;;2.53;;
35114;SDS011;21292;52.416;13.046;2022-10-16T05:31:51;2.97;;;2.40;;
35114;SDS011;21292;52.416;13.046;2022-10-16T05:34:20;4.03;;;2.80;;
35114;SDS011;21292;52.416;13.046;2022-10-16T05:36:48;2.60;;;2.40;;
35114;SDS011;21292;52.416;13.046;2022-10-16T05:39:16;3.78;;;2.40;;
35114;SDS011;21292;52.416;13.046;2022-10-16T05:41:44;6.50;;;2.58;;
35114;SDS011;21292;52.416;13.046;2022-10-16T05:44:36;3.23;;;2.87;;
35114;SDS011;21292;52.416;13.046;2022-10-16T05:47:06;5.57;;;2.45;;
35114;SDS011;21292;52.416;13.046;2022-10-16T05:49:34;3.13;;;2.50;;
35114;SDS011;21292;52.416;13.046;2022-10-16T05:52:06;2.70;;;2.28;;
35114;SDS011;21292;52.416;13.046;2022-10-16T05:54:35;3.08;;;2.78;;
35114;SDS011;21292;52.416;13.046;2022-10-16T05:57:03;3.33;;;2.28;;
35114;SDS011;21292;52.416;13.046;2022-10-16T05:59:32;4.45;;;2.55;;
35114;SDS011;21292;52.416;13.046;2022-10-16T06:02:00;4.65;;;2.42;;
35114;SDS011;21292;52.416;13.046;2022-10-16T06:04:29;4.35;;;2.25;;
35114;SDS011;21292;52.416;13.046;2022-10-16T06:06:58;4.22;;;2.40;;
35114;SDS011;21292;52.416;13.046;2022-10-16T06:09:28;2.63;;;2.00;;
35114;SDS011;21292;52.416;13.046;2022-10-16T06:11:56;2.85;;;2.65;;
35114;SDS011;21292;52.416;13.046;2022-10-16T06:14:25;3.95;;;2.92;;
35114;SDS011;21292;52.416;13.046;2022-10-16T06:16:53;5.40;;;3.70;;
35114;SDS011;21292;52.416;13.046;2022-10-16T06:19:21;6.72;;;3.42;;
35114;SDS011;21292;52.416;13.046;2022-10-16T06:21:51;4.30;;;3.22;;
35114;SDS011;21292;52.416;13.046;2022-10-16T06:24:19;3.22;;;2.80;;
35114;SDS011;21292;52.416;13.046;2022-10-16T06:26:49;3.03;;;2.72;;
35114;SDS011;21292;52.416;13.046;2022-10-16T06:29:20;3.58;;;2.70;;
35114;SDS011;21292;52.416;13.046;2022-10-16T06:31:48;4.00;;;2.53;;
35114;SDS011;21292;52.416;13.046;2022-10-16T06:34:16;5.55;;;2.67;;
35114;SDS011;21292;52.416;13.046;2022-10-16T06:36:44;3.15;;;2.58;;
35114;SDS011;21292;52.416;13.046;2022-10-16T06:39:15;3.60;;;2.30;;
35114;SDS011;21292;52.416;13.046;2022-10-16T06:41:43;4.20;;;3.03;;
35114;SDS011;21292;52.416;13.046;2022-10-16T06:44:11;4.15;;;2.28;;
35114;SDS011;21292;52.416;13.046;2022-10-16T06:46:40;4.25;;;2.42;;
35114;SDS011;21292;52.416;13.046;2022-10-16T06:49:08;3.00;;;2.67;;
35114;SDS011;21292;52.416;13.046;2022-10-16T06:51:36;4.03;;;2.78;;
35114;SDS011;21292;52.416;13.046;2022-10-16T06:54:09;4.68;;;2.33;;
35114;SDS011;21292;52.416;13.046;2022-10-16T06:56:39;2.53;;;2.33;;
35114;SDS011;21292;52.416;13.046;2022-10-16T06:59:07;4.60;;;2.35;;
35114;SDS011;21292;52.416;13.046;2022-10-16T07:01:35;4.00;;;2.40;;
35114;SDS011;21292;52.416;13.046;2022-10-16T07:04:03;2.35;;;2.10;;
35114;SDS011;21292;52.416;13.046;2022-10-16T07:06:33;6.10;;;2.00;;
35114;SDS011;21292;52.416;13.046;2022-10-16T07:09:02;4.40;;;2.05;;
35114;SDS011;21292;52.416;13.046;2022-10-16T07:11:33;2.53;;;2.10;;
35114;SDS011;21292;52.416;13.046;2022-10-16T07:14:03;2.95;;;2.08;;
35114;SDS011;21292;52.416;13.046;2022-10-16T07:16:32;2.88;;;1.80;;
35114;SDS011;21292;52.416;13.046;2022-10-16T07:19:01;2.05;;;1.88;;
35114;SDS011;21292;52.416;13.046;2022-10-16T07:21:30;3.58;;;1.75;;
35114;SDS011;21292;52.416;13.046;2022-10-16T07:24:03;4.50;;;1.70;;
35114;SDS011;21292;52.416;13.046;2022-10-16T07:26:33;3.83;;;1.70;;
35114;SDS011;21292;52.416;13.046;2022-10-16T07:29:09;1.67;;;1.52;;
35114;SDS011;21292;52.416;13.046;2022-10-16T07:31:40;2.80;;;1.88;;
35114;SDS011;21292;52.416;13.046;2022-10-16T07:34:10;3.13;;;1.88;;
35114;SDS011;21292;52.416;13.046;2022-10-16T07:36:38;2.75;;;2.10;;
35114;SDS011;21292;52.416;13.046;2022-10-16T07:39:12;3.45;;;1.63;;
35114;SDS011;21292;52.416;13.046;2022-10-16T07:41:41;2.70;;;1.60;;
35114;SDS011;21292;52.416;13.046;2022-10-16T07:44:12;1.80;;;1.70;;
35114;SDS011;21292;52.416;13.046;2022-10-16T07:46:41;2.08;;;1.85;;
35114;SDS011;21292;52.416;13.046;2022-10-16T07:49:09;5.03;;;2.17;;
35114;SDS011;21292;52.416;13.046;2022-10-16T07:51:37;4.72;;;2.13;;
35114;SDS011;21292;52.416;13.046;2022-10-16T07:54:07;2.58;;;1.92;;
35114;SDS011;21292;52.416;13.046;2022-10-16T07:56:36;2.47;;;1.67;;
35114;SDS011;21292;52.416;13.046;2022-10-16T07:59:12;2.00;;;1.60;;
35114;SDS011;21292;52.416;13.046;2022-10-16T08:01:41;4.13;;;1.90;;
35114;SDS011;21292;52.416;13.046;2022-10-16T08:04:33;3.00;;;1.73;;
35114;SDS011;21292;52.416;13.046;2022-10-16T08:07:01;2.15;;;1.60;;
35114;SDS011;21292;52.416;13.046;2022-10-16T08:09:30;2.28;;;1.58;;
35114;SDS011;21292;52.416;13.046;2022-10-16T08:11:59;2.50;;;1.35;;
35114;SDS011;21292;52.416;13.046;2022-10-16T08:14:31;2.67;;;1.50;;
35114;SDS011;21292;52.416;13.046;2022-10-16T08:16:59;2.22;;;1.52;;
35114;SDS011;21292;52.416;13.046;2022-10-16T08:19:29;2.47;;;1.35;;
35114;SDS011;21292;52.416;13.046;2022-10-16T08:21:58;2.03;;;1.33;;
35114;SDS011;21292;52.416;13.046;2022-10-16T08:24:26;2.85;;;1.30;;
35114;SDS011;21292;52.416;13.046;2022-10-16T08:26:57;1.40;;;1.13;;
35114;SDS011;21292;52.416;13.046;2022-10-16T08:29:25;4.15;;;1.63;;
35114;SDS011;21292;52.416;13.046;2022-10-16T08:31:55;1.45;;;1.20;;
35114;SDS011;21292;52.416;13.046;2022-10-16T08:34:23;2.50;;;1.48;;
35114;SDS011;21292;52.416;13.046;2022-10-16T08:36:52;1.50;;;1.40;;
35114;SDS011;21292;52.416;13.046;2022-10-16T08:39:21;2.08;;;1.20;;
35114;SDS011;21292;52.416;13.046;2022-10-16T08:41:54;2.15;;;1.50;;
35114;SDS011;21292;52.416;13.046;2022-10-16T08:44:34;1.42;;;1.25;;
35114;SDS011;21292;52.416;13.046;2022-10-16T08:47:15;1.85;;;1.27;;
35114;SDS011;21292;52.416;13.046;2022-10-16T08:49:55;3.38;;;1.38;;
35114;SDS011;21292;52.416;13.046;2022-10-16T08:52:25;5.38;;;1.33;;
35114;SDS011;21292;52.416;13.046;2022-10-16T08:54:57;5.13;;;1.52;;
35114;SDS011;21292;52.416;13.046;2022-10-16T08:57:26;2.72;;;1.08;;
35114;SDS011;21292;52.416;13.046;2022-10-16T08:59:55;1.17;;;1.08;;
35114;SDS011;21292;52.416;13.046;2022-10-16T09:02:31;3.13;;;1.35;;
35114;SDS011;21292;52.416;13.046;2022-10-16T09:05:08;2.80;;;1.35;;
35114;SDS011;21292;52.416;13.046;2022-10-16T09:07:46;1.30;;;1.20;;
35114;SDS011;21292;52.416;13.046;2022-10-16T09:10:21;6.28;;;1.20;;
35114;SDS011;21292;52.416;13.046;2022-10-16T09:12:58;2.20;;;1.45;;
35114;SDS011;21292;52.416;13.046;2022-10-16T09:15:34;1.17;;;1.00;;
35114;SDS011;21292;52.416;13.046;2022-10-16T09:18:06;3.13;;;0.90;;
35114;SDS011;21292;52.416;13.046;2022-10-16T09:20:42;2.30;;;1.10;;
35114;SDS011;21292;52.416;13.046;2022-10-16T09:23:16;2.08;;;0.90;;
35114;SDS011;21292;52.416;13.046;2022-10-16T09:25:46;2.00;;;1.08;;
35114;SDS011;21292;52.416;13.046;2022-10-16T09:28:16;0.90;;;0.90;;
35114;SDS011;21292;52.416;13.046;2022-10-16T09:30:44;3.53;;;1.20;;
35114;SDS011;21292;52.416;13.046;2022-10-16T09:33:16;1.20;;;1.10;;
35114;SDS011;21292;52.416;13.046;2022-10-16T09:35:48;1.13;;;0.80;;
35114;SDS011;21292;52.416;13.046;2022-10-16T09:38:25;1.67;;;0.85;;
35114;SDS011;21292;52.416;13.046;2022-10-16T09:41:11;2.55;;;1.00;;
35114;SDS011;21292;52.416;13.046;2022-10-16T09:43:46;2.42;;;0.88;;
35114;SDS011;21292;52.416;13.046;2022-10-16T09:46:24;1.65;;;0.73;;
35114;SDS011;21292;52.416;13.046;2022-10-16T09:48:56;1.05;;;0.98;;
35114;SDS011;21292;52.416;13.046;2022-10-16T09:51:27;1.65;;;0.73;;
35114;SDS011;21292;52.416;13.046;2022-10-16T09:53:57;1.20;;;0.90;;
35114;SDS011;21292;52.416;13.046;2022-10-16T09:56:27;1.42;;;0.98;;
35114;SDS011;21292;52.416;13.046;2022-10-16T09:58:58;2.40;;;0.80;;
35114;SDS011;21292;52.416;13.046;2022-10-16T10:01:29;1.63;;;1.23;;
35114;SDS011;21292;52.416;13.046;2022-10-16T10:04:00;1.27;;;0.90;;
35114;SDS011;21292;52.416;13.046;2022-10-16T10:06:31;1.53;;;1.00;;
35114;SDS011;21292;52.416;13.046;2022-10-16T10:09:05;2.42;;;0.90;;
35114;SDS011;21292;52.416;13.046;2022-10-16T10:11:39;2.95;;;1.15;;
35114;SDS011;21292;52.416;13.046;2022-10-16T10:14:16;2.72;;;1.00;;
35114;SDS011;21292;52.416;13.046;2022-10-16T10:16:49;1.17;;;1.02;;
35114;SDS011;21292;52.416;13.046;2022-10-16T10:19:21;1.58;;;0.90;;
35114;SDS011;21292;52.416;13.046;2022-10-16T10:21:56;3.30;;;1.00;;
35114;SDS011;21292;52.416;13.046;2022-10-16T10:24:24;2.25;;;1.00;;
35114;SDS011;21292;52.416;13.046;2022-10-16T10:26:54;1.85;;;1.00;;
35114;SDS011;21292;52.416;13.046;2022-10-16T10:29:35;0.70;;;0.70;;
35114;SDS011;21292;52.416;13.046;2022-10-16T10:32:12;2.63;;;1.40;;
35114;SDS011;21292;52.416;13.046;2022-10-16T10:34:51;2.58;;;0.95;;
35114;SDS011;21292;52.416;13.046;2022-10-16T10:37:32;0.93;;;0.80;;
35114;SDS011;21292;52.416;13.046;2022-10-16T10:40:11;3.17;;;0.80;;
35114;SDS011;21292;52.416;13.046;2022-10-16T10:42:59;2.75;;;0.95;;
35114;SDS011;21292;52.416;13.046;2022-10-16T10:45:36;2.65;;;1.00;;
35114;SDS011;21292;52.416;13.046;2022-10-16T10:48:12;0.70;;;0.70;;
35114;SDS011;21292;52.416;13.046;2022-10-16T10:50:49;4.32;;;0.90;;
35114;SDS011;21292;52.416;13.046;2022-10-16T10:53:24;1.60;;;1.23;;
35114;SDS011;21292;52.416;13.046;2022-10-16T10:56:05;2.75;;;0.90;;
35114;SDS011;21292;52.416;13.046;2022-10-16T10:58:44;0.93;;;0.75;;
35114;SDS011;21292;52.416;13.046;2022-10-16T11:01:22;2.03;;;0.75;;
35114;SDS011;21292;52.416;13.046;2022-10-16T11:07:09;1.27;;;0.88;;
35114;SDS011;21292;52.416;13.046;2022-10-16T11:09:43;1.13;;;0.80;;
35114;SDS011;21292;52.416;13.046;2022-10-16T11:12:14;1.42;;;0.60;;
35114;SDS011;21292;52.416;13.046;2022-10-16T11:17:15;0.90;;;0.80;;
35114;SDS011;21292;52.416;13.046;2022-10-16T11:19:53;2.83;;;1.08;;
35114;SDS011;21292;52.416;13.046;2022-10-16T11:22:34;2.40;;;0.88;;
35114;SDS011;21292;52.416;13.046;2022-10-16T11:25:04;1.42;;;0.80;;
35114;SDS011;21292;52.416;13.046;2022-10-16T11:27:43;2.28;;;0.68;;
35114;SDS011;21292;52.416;13.046;2022-10-16T11:30:16;1.40;;;0.60;;
35114;SDS011;21292;52.416;13.046;2022-10-16T11:32:53;3.10;;;0.70;;
35114;SDS011;21292;52.416;13.046;2022-10-16T11:35:33;1.38;;;0.70;;
35114;SDS011;21292;52.416;13.046;2022-10-16T11:38:12;0.98;;;0.73;;
35114;SDS011;21292;52.416;13.046;2022-10-16T11:40:43;3.45;;;0.70;;
35114;SDS011;21292;52.416;13.046;2022-10-16T11:43:15;0.90;;;0.70;;
35114;SDS011;21292;52.416;13.046;2022-10-16T11:45:48;2.20;;;0.55;;
35114;SDS011;21292;52.416;13.046;2022-10-16T11:48:18;3.90;;;0.80;;
35114;SDS011;21292;52.416;13.046;2022-10-16T11:50:52;0.75;;;0.60;;
35114;SDS011;21292;52.416;13.046;2022-10-16T11:53:27;1.25;;;0.60;;
35114;SDS011;21292;52.416;13.046;2022-10-16T11:56:03;1.63;;;0.68;;
35114;SDS011;21292;52.416;13.046;2022-10-16T11:58:32;2.33;;;0.80;;
35114;SDS011;21292;52.416;13.046;2022-10-16T12:01:03;0.73;;;0.70;;
35114;SDS011;21292;52.416;13.046;2022-10-16T12:03:40;0.88;;;0.70;;
35114;SDS011;21292;52.416;13.046;2022-10-16T12:06:22;2.15;;;0.88;;
35114;SDS011;21292;52.416;13.046;2022-10-16T12:08:55;1.02;;;0.60;;
35114;SDS011;21292;52.416;13.046;2022-10-16T12:11:31;1.05;;;0.77;;
35114;SDS011;21292;52.416;13.046;2022-10-16T12:16:52;0.90;;;0.65;;
35114;SDS011;21292;52.416;13.046;2022-10-16T12:19:22;1.88;;;0.73;;
35114;SDS011;21292;52.416;13.046;2022-10-16T12:21:56;6.03;;;0.85;;
35114;SDS011;21292;52.416;13.046;2022-10-16T12:24:39;0.80;;;0.80;;
35114;SDS011;21292;52.416;13.046;2022-10-16T12:27:20;2.10;;;0.68;;
35114;SDS011;21292;52.416;13.046;2022-10-16T12:29:54;1.67;;;0.70;;
35114;SDS011;21292;52.416;13.046;2022-10-16T12:32:27;0.50;;;0.50;;
35114;SDS011;21292;52.416;13.046;2022-10-16T12:35:18;1.10;;;0.60;;
35114;SDS011;21292;52.416;13.046;2022-10-16T12:37:47;0.50;;;0.50;;
35114;SDS011;21292;52.416;13.046;2022-10-16T12:40:23;0.50;;;0.50;;
35114;SDS011;21292;52.416;13.046;2022-10-16T12:42:54;1.52;;;0.70;;
35114;SDS011;21292;52.416;13.046;2022-10-16T12:45:27;0.75;;;0.70;;
35114;SDS011;21292;52.416;13.046;2022-10-16T12:47:58;2.63;;;0.70;;
35114;SDS011;21292;52.416;13.046;2022-10-16T12:50:30;1.52;;;0.60;;
35114;SDS011;21292;52.416;13.046;2022-10-16T12:53:02;0.70;;;0.70;;
35114;SDS011;21292;52.416;13.046;2022-10-16T12:55:50;1.40;;;0.60;;
35114;SDS011;21292;52.416;13.046;2022-10-16T12:58:30;1.15;;;0.70;;
35114;SDS011;21292;52.416;13.046;2022-10-16T13:01:07;1.05;;;0.70;;
35114;SDS011;21292;52.416;13.046;2022-10-16T13:03:46;2.97;;;0.47;;
35114;SDS011;21292;52.416;13.046;2022-10-16T13:06:24;1.00;;;0.50;;
35114;SDS011;21292;52.416;13.046;2022-10-16T13:09:07;0.98;;;0.60;;
35114;SDS011;21292;52.416;13.046;2022-10-16T13:11:49;1.40;;;0.57;;
35114;SDS011;21292;52.416;13.046;2022-10-16T13:14:31;2.78;;;0.65;;
35114;SDS011;21292;52.416;13.046;2022-10-16T13:17:15;0.60;;;0.60;;
35114;SDS011;21292;52.416;13.046;2022-10-16T13:19:48;2.17;;;0.45;;
35114;SDS011;21292;52.416;13.046;2022-10-16T13:22:23;1.38;;;0.70;;
35114;SDS011;21292;52.416;13.046;2022-10-16T13:27:31;1.25;;;0.50;;
35114;SDS011;21292;52.416;13.046;2022-10-16T13:30:09;1.30;;;0.80;;
35114;SDS011;21292;52.416;13.046;2022-10-16T13:32:43;2.88;;;0.98;;
35114;SDS011;21292;52.416;13.046;2022-10-16T13:35:21;1.17;;;0.50;;
35114;SDS011;21292;52.416;13.046;2022-10-16T13:38:02;3.40;;;0.63;;
35114;SDS011;21292;52.416;13.046;2022-10-16T13:40:32;0.40;;;0.40;;
35114;SDS011;21292;52.416;13.046;2022-10-16T13:43:02;4.85;;;0.68;;
35114;SDS011;21292;52.416;13.046;2022-10-16T13:45:32;2.90;;;0.57;;
35114;SDS011;21292;52.416;13.046;2022-10-16T13:48:03;2.13;;;0.70;;
35114;SDS011;21292;52.416;13.046;2022-10-16T13:50:32;0.95;;;0.60;;
35114;SDS011;21292;52.416;13.046;2022-10-16T13:53:05;0.65;;;0.50;;
35114;SDS011;21292;52.416;13.046;2022-10-16T13:55:33;1.55;;;0.70;;
35114;SDS011;21292;52.416;13.046;2022-10-16T13:58:08;0.98;;;0.57;;
35114;SDS011;21292;52.416;13.046;2022-10-16T14:00:40;4.22;;;0.60;;
35114;SDS011;21292;52.416;13.046;2022-10-16T14:03:20;2.65;;;0.50;;
35114;SDS011;21292;52.416;13.046;2022-10-16T14:05:49;2.53;;;0.93;;
35114;SDS011;21292;52.416;13.046;2022-10-16T14:08:21;1.00;;;0.60;;
35114;SDS011;21292;52.416;13.046;2022-10-16T14:10:51;3.05;;;0.95;;
35114;SDS011;21292;52.416;13.046;2022-10-16T14:13:28;0.50;;;0.50;;
35114;SDS011;21292;52.416;13.046;2022-10-16T14:15:59;0.80;;;0.70;;
35114;SDS011;21292;52.416;13.046;2022-10-16T14:18:31;0.88;;;0.88;;
35114;SDS011;21292;52.416;13.046;2022-10-16T14:21:04;3.00;;;0.80;;
35114;SDS011;21292;52.416;13.046;2022-10-16T14:23:35;3.15;;;0.90;;
35114;SDS011;21292;52.416;13.046;2022-10-16T14:26:05;3.92;;;0.70;;
35114;SDS011;21292;52.416;13.046;2022-10-16T14:28:36;0.80;;;0.50;;
35114;SDS011;21292;52.416;13.046;2022-10-16T14:33:59;1.00;;;0.70;;
35114;SDS011;21292;52.416;13.046;2022-10-16T14:36:28;4.35;;;0.80;;
35114;SDS011;21292;52.416;13.046;2022-10-16T14:38:58;3.30;;;0.82;;
35114;SDS011;21292;52.416;13.046;2022-10-16T14:41:29;1.15;;;0.65;;
35114;SDS011;21292;52.416;13.046;2022-10-16T14:44:00;3.63;;;0.70;;
35114;SDS011;21292;52.416;13.046;2022-10-16T14:46:33;2.35;;;0.70;;
35114;SDS011;21292;52.416;13.046;2022-10-16T14:49:05;0.65;;;0.57;;
35114;SDS011;21292;52.416;13.046;2022-10-16T14:51:42;3.53;;;0.52;;
35114;SDS011;21292;52.416;13.046;2022-10-16T14:54:13;3.25;;;0.80;;
35114;SDS011;21292;52.416;13.046;2022-10-16T14:56:45;2.17;;;0.80;;
35114;SDS011;21292;52.416;13.046;2022-10-16T14:59:17;0.93;;;0.70;;
35114;SDS011;21292;52.416;13.046;2022-10-16T15:01:50;3.08;;;1.13;;
35114;SDS011;21292;52.416;13.046;2022-10-16T15:04:19;1.35;;;0.68;;
35114;SDS011;21292;52.416;13.046;2022-10-16T15:06:47;4.03;;;0.68;;
35114;SDS011;21292;52.416;13.046;2022-10-16T15:09:17;0.50;;;0.50;;
35114;SDS011;21292;52.416;13.046;2022-10-16T15:11:46;3.15;;;0.63;;
35114;SDS011;21292;52.416;13.046;2022-10-16T15:14:16;1.98;;;0.63;;